createdAt,value
2023-01-17T00:04:53.813Z,100.00
2023-01-17T00:09:55.906Z,100.00
2023-01-17T00:14:58.432Z,100.00
2023-01-17T00:20:00.311Z,100.00
2023-01-17T00:25:02.188Z,100.00
2023-01-17T00:30:06.340Z,100.00
2023-01-17T00:35:08.646Z,100.00
2023-01-17T00:40:11.085Z,100.00
2023-01-17T00:45:12.952Z,100.00
2023-01-17T00:50:15.786Z,100.00
2023-01-17T00:55:17.676Z,100.00
2023-01-17T01:00:19.680Z,100.00
2023-01-17T01:05:21.691Z,100.00
2023-01-17T01:10:23.641Z,100.00
2023-01-17T01:15:25.526Z,100.00
2023-01-17T01:20:27.421Z,100.00
2023-01-17T01:25:29.502Z,100.00
2023-01-17T01:30:31.377Z,100.00
2023-01-17T01:35:33.269Z,100.00
2023-01-17T01:40:35.124Z,100.00
2023-01-17T01:45:37.076Z,100.00
2023-01-17T01:50:39.105Z,100.00
2023-01-17T01:55:41.184Z,100.00
2023-01-17T02:00:43.158Z,100.00
2023-01-17T02:05:45.135Z,100.00
2023-01-17T02:10:47.207Z,100.00
2023-01-17T02:16:03.800Z,100.00
2023-01-17T02:21:20.781Z,100.00
2023-01-17T02:26:37.605Z,100.00
2023-01-17T02:31:54.387Z,100.00
2023-01-17T02:37:01.236Z,100.00
2023-01-17T02:42:14.139Z,100.00
2023-01-17T02:47:23.771Z,100.00
2023-01-17T02:53:00.298Z,100.00
2023-01-17T02:58:35.342Z,100.00
2023-01-17T03:03:52.316Z,100.00
2023-01-17T03:08:54.174Z,100.00
2023-01-17T03:13:57.109Z,100.00
2023-01-17T03:18:59.069Z,100.00
2023-01-17T03:24:01.031Z,100.00
2023-01-17T03:29:02.886Z,100.00
2023-01-17T03:34:04.717Z,100.00
2023-01-17T03:39:06.725Z,100.00
2023-01-17T03:44:08.672Z,100.00
2023-01-17T03:49:10.593Z,100.00
2023-01-17T03:54:12.547Z,100.00
2023-01-17T03:59:14.576Z,100.00
2023-01-17T04:04:16.406Z,100.00
2023-01-17T04:09:19.745Z,100.00
2023-01-17T04:14:22.050Z,100.00
2023-01-17T04:19:24.011Z,100.00
2023-01-17T04:24:26.117Z,100.00
2023-01-17T04:29:28.014Z,100.00
2023-01-17T04:34:30.006Z,100.00
2023-01-17T04:39:31.949Z,100.00
2023-01-17T04:44:33.771Z,100.00
2023-01-17T04:49:35.634Z,100.00
2023-01-17T04:54:37.721Z,100.00
2023-01-17T04:59:39.602Z,100.00
2023-01-17T05:04:41.543Z,100.00
2023-01-17T05:09:43.403Z,100.00
2023-01-17T05:14:45.292Z,100.00
2023-01-17T05:19:47.104Z,100.00
2023-01-17T05:24:49.036Z,100.00
2023-01-17T05:29:50.930Z,100.00
2023-01-17T05:34:54.089Z,100.00
2023-01-17T05:39:55.990Z,100.00
2023-01-17T05:44:57.748Z,100.00
2023-01-17T05:49:59.638Z,100.00
2023-01-17T05:55:01.468Z,100.00
2023-01-17T06:00:03.600Z,100.00
2023-01-17T06:05:05.941Z,100.00
2023-01-17T06:10:08.148Z,100.00
2023-01-17T06:15:10.488Z,100.00
2023-01-17T06:20:12.460Z,100.00
2023-01-17T06:25:14.489Z,100.00
2023-01-17T06:30:16.500Z,100.00
2023-01-17T06:35:18.310Z,100.00
2023-01-17T06:40:20.137Z,100.00
2023-01-17T06:45:21.925Z,100.00
2023-01-17T06:50:23.779Z,100.00
2023-01-17T06:55:26.512Z,100.00
2023-01-17T07:00:29.349Z,100.00
2023-01-17T07:05:31.279Z,100.00
2023-01-17T07:10:33.147Z,100.00
2023-01-17T07:15:34.995Z,100.00
2023-01-17T07:20:36.825Z,100.00
2023-01-17T07:25:38.764Z,100.00
2023-01-17T07:30:40.573Z,100.00
2023-01-17T07:35:42.441Z,100.00
2023-01-17T07:40:44.719Z,100.00
2023-01-17T07:45:50.031Z,100.00
2023-01-17T07:50:53.296Z,100.00
2023-01-17T07:55:55.373Z,100.00
2023-01-17T08:01:07.769Z,100.00
2023-01-17T08:06:18.968Z,100.00
2023-01-17T08:11:20.790Z,100.00
2023-01-17T08:16:22.911Z,100.00
2023-01-17T08:21:24.763Z,100.00
2023-01-17T08:26:27.184Z,100.00
2023-01-17T08:31:30.594Z,100.00
2023-01-17T08:36:32.493Z,100.00
2023-01-17T08:41:34.314Z,100.00
2023-01-17T08:46:38.359Z,100.00
2023-01-17T08:51:40.397Z,100.00
2023-01-17T08:56:42.354Z,100.00
2023-01-17T09:01:44.404Z,100.00
2023-01-17T09:06:46.344Z,100.00
2023-01-17T09:11:48.220Z,100.00
2023-01-17T09:16:50.132Z,100.00
2023-01-17T09:21:52.003Z,100.00
2023-01-17T09:26:53.904Z,100.00
2023-01-17T09:31:55.890Z,100.00
2023-01-17T09:36:57.704Z,100.00
2023-01-17T09:42:21.877Z,100.00
2023-01-17T09:47:43.475Z,99.76
2023-01-17T09:52:45.413Z,99.93
2023-01-17T09:58:00.705Z,99.41
2023-01-17T10:03:20.804Z,99.95
2023-01-17T10:08:37.988Z,100.00
2023-01-17T10:13:55.816Z,100.00
2023-01-17T10:19:09.775Z,100.00
2023-01-17T10:24:46.207Z,100.00
2023-01-17T10:29:48.150Z,100.00
2023-01-17T10:34:51.174Z,100.00
2023-01-17T10:39:54.277Z,99.70
2023-01-17T10:45:01.217Z,99.13
2023-01-17T10:50:04.433Z,99.59
2023-01-17T10:55:43.456Z,100.00
2023-01-17T11:00:50.672Z,100.00
2023-01-17T11:06:15.422Z,100.00
2023-01-17T11:11:17.551Z,99.95
2023-01-17T11:16:27.554Z,100.00
2023-01-17T11:21:29.531Z,100.00
2023-01-17T11:26:32.474Z,100.00
2023-01-17T11:31:34.285Z,100.00
2023-01-17T11:36:36.179Z,100.00
2023-01-17T11:41:39.653Z,100.00
2023-01-17T11:46:41.575Z,100.00
2023-01-17T11:51:43.436Z,100.00
2023-01-17T11:56:45.200Z,100.00
2023-01-17T12:02:12.277Z,100.00
2023-01-17T12:07:33.198Z,100.00
2023-01-17T12:12:45.459Z,100.00
2023-01-17T12:18:02.043Z,100.00
2023-01-17T12:23:07.878Z,99.95
2023-01-17T12:28:41.795Z,99.70
2023-01-17T12:34:07.111Z,99.07
2023-01-17T12:39:10.395Z,98.62
2023-01-17T12:44:13.949Z,98.77
2023-01-17T12:49:28.068Z,98.21
2023-01-17T12:54:32.001Z,98.19
2023-01-17T12:59:46.387Z,98.25
2023-01-17T13:04:58.786Z,97.68
2023-01-17T13:10:04.380Z,97.69
2023-01-17T13:15:14.122Z,97.94
2023-01-17T13:20:22.139Z,97.25
2023-01-17T13:25:38.951Z,96.86
2023-01-17T13:31:09.245Z,96.33
2023-01-17T13:36:11.115Z,96.03
2023-01-17T13:41:16.696Z,95.82
2023-01-17T13:46:18.749Z,95.63
2023-01-17T13:51:20.584Z,95.40
2023-01-17T13:56:22.374Z,95.15
2023-01-17T14:01:24.189Z,94.40
2023-01-17T14:06:28.590Z,94.59
2023-01-17T14:11:34.209Z,94.50
2023-01-17T14:16:36.019Z,94.54
2023-01-17T14:21:37.842Z,94.05
2023-01-17T14:26:58.027Z,93.93
2023-01-17T14:32:01.630Z,93.42
2023-01-17T14:37:23.029Z,93.25
2023-01-17T14:42:29.703Z,92.92
2023-01-17T14:47:33.829Z,92.22
2023-01-17T14:52:35.660Z,92.18
2023-01-17T14:57:37.530Z,92.37
2023-01-17T15:02:45.815Z,92.29
2023-01-17T15:07:55.581Z,92.16
2023-01-17T15:12:58.337Z,92.68
2023-01-17T15:18:29.192Z,93.06
2023-01-17T15:23:33.061Z,92.76
2023-01-17T15:28:35.169Z,92.80
2023-01-17T15:33:39.332Z,92.76
2023-01-17T15:38:45.632Z,91.97
2023-01-17T15:43:47.498Z,91.86
2023-01-17T15:48:49.285Z,91.30
2023-01-17T15:53:51.160Z,90.80
2023-01-17T15:58:53.141Z,89.60
2023-01-17T16:03:55.171Z,89.27
2023-01-17T16:08:57.061Z,88.97
2023-01-17T16:13:58.996Z,88.58
2023-01-17T16:19:01.001Z,88.87
2023-01-17T16:24:02.934Z,88.90
2023-01-17T16:29:04.842Z,89.13
2023-01-17T16:34:12.828Z,89.78
2023-01-17T16:39:14.584Z,89.59
2023-01-17T16:44:16.457Z,90.10
2023-01-17T16:49:18.323Z,90.27
2023-01-17T16:54:20.185Z,90.09
2023-01-17T16:59:22.114Z,89.76
2023-01-17T17:04:24.025Z,89.78
2023-01-17T17:09:25.910Z,90.11
2023-01-17T17:14:28.051Z,90.44
2023-01-17T17:19:30.024Z,90.78
2023-01-17T17:24:32.032Z,90.93
2023-01-17T17:29:33.886Z,91.81
2023-01-17T17:34:36.056Z,92.17
2023-01-17T17:39:38.432Z,91.93
2023-01-17T17:44:40.422Z,91.82
2023-01-17T17:49:43.107Z,92.17
2023-01-17T17:54:44.800Z,92.75
2023-01-17T17:59:46.659Z,92.72
2023-01-17T18:04:48.608Z,92.69
2023-01-17T18:09:50.635Z,93.47
2023-01-17T18:14:52.511Z,94.11
2023-01-17T18:19:54.380Z,94.09
2023-01-17T18:24:56.190Z,93.90
2023-01-17T18:30:00.085Z,93.86
2023-01-17T18:35:02.087Z,95.08
2023-01-17T18:40:04.813Z,94.74
2023-01-17T18:45:07.099Z,95.35
2023-01-17T18:50:09.559Z,94.72
2023-01-17T18:55:11.416Z,94.57
2023-01-17T19:00:15.062Z,94.67
2023-01-17T19:05:17.073Z,95.08
2023-01-17T19:10:19.053Z,94.84
2023-01-17T19:15:20.996Z,94.66
2023-01-17T19:20:22.905Z,94.35
2023-01-17T19:25:24.859Z,94.76
2023-01-17T19:30:26.726Z,96.14
2023-01-17T19:35:28.632Z,95.74
2023-01-17T19:40:30.870Z,95.38
2023-01-17T19:45:33.066Z,94.13
2023-01-17T19:50:35.014Z,94.63
2023-01-17T19:55:39.552Z,94.40
2023-01-17T20:00:46.470Z,94.60
2023-01-17T20:05:56.179Z,94.68
2023-01-17T20:11:04.987Z,95.94
2023-01-17T20:16:08.252Z,96.09
2023-01-17T20:21:17.952Z,94.76
2023-01-17T20:26:26.657Z,94.65
2023-01-17T20:31:28.574Z,94.62
2023-01-17T20:36:30.600Z,94.18
2023-01-17T20:41:37.154Z,94.81
2023-01-17T20:46:40.704Z,94.66
2023-01-17T20:51:43.444Z,94.65
2023-01-17T20:56:45.443Z,95.40
2023-01-17T21:01:47.815Z,95.24
2023-01-17T21:06:49.864Z,95.26
2023-01-17T21:11:51.794Z,94.88
2023-01-17T21:16:53.770Z,94.39
2023-01-17T21:21:55.729Z,94.91
2023-01-17T21:26:57.628Z,94.19
2023-01-17T21:31:59.614Z,94.01
2023-01-17T21:37:01.515Z,94.45
2023-01-17T21:42:03.625Z,95.62
2023-01-17T21:47:05.556Z,97.48
2023-01-17T21:52:07.467Z,97.72
2023-01-17T21:57:09.759Z,98.41
2023-01-17T22:02:11.675Z,98.14
2023-01-17T22:07:13.615Z,97.97
2023-01-17T22:12:15.513Z,98.67
2023-01-17T22:17:17.375Z,100.00
2023-01-17T22:22:19.597Z,99.97
2023-01-17T22:27:21.501Z,99.04
2023-01-17T22:32:23.393Z,99.54
2023-01-17T22:37:25.285Z,99.17
2023-01-17T22:42:27.191Z,99.66
2023-01-17T22:47:29.198Z,99.66
2023-01-17T22:52:31.347Z,99.29
2023-01-17T22:57:33.347Z,99.09
2023-01-17T23:02:35.334Z,99.06
2023-01-17T23:07:37.478Z,98.83
2023-01-17T23:12:39.731Z,99.85
2023-01-17T23:17:41.553Z,99.53
2023-01-17T23:22:43.566Z,100.00
2023-01-17T23:27:46.226Z,99.98
2023-01-17T23:32:48.927Z,99.67
2023-01-17T23:37:50.739Z,99.69
2023-01-17T23:42:52.662Z,99.70
2023-01-17T23:47:54.580Z,99.47
2023-01-17T23:52:56.893Z,98.91
2023-01-17T23:57:58.929Z,99.33
